createdAt,value
2023-03-23T16:00:42.673Z,15.96
2023-03-23T16:05:45.302Z,15.92
2023-03-23T16:10:47.598Z,15.88
2023-03-23T16:15:50.226Z,15.84
2023-03-23T16:20:52.282Z,15.82
2023-03-23T16:25:54.223Z,15.80
2023-03-23T16:31:05.007Z,15.76
2023-03-23T16:36:07.669Z,15.65
2023-03-23T16:41:09.571Z,15.54
2023-03-23T16:46:13.575Z,15.46
2023-03-23T16:51:16.185Z,15.39
2023-03-23T16:56:18.338Z,15.34
2023-03-23T17:01:20.630Z,15.28
2023-03-23T17:06:22.781Z,15.24
2023-03-23T17:11:24.805Z,15.19
2023-03-23T17:16:26.699Z,15.12
2023-03-23T17:21:28.586Z,15.06
2023-03-23T17:26:31.447Z,15.00
2023-03-23T17:31:33.661Z,14.94
2023-03-23T17:36:35.797Z,14.87
2023-03-23T17:41:37.738Z,14.81
2023-03-23T17:46:39.623Z,14.75
2023-03-23T17:51:41.613Z,14.69
2023-03-23T17:56:44.809Z,14.60
2023-03-23T18:01:49.023Z,14.52
2023-03-23T18:06:50.846Z,14.46
2023-03-23T18:11:53.224Z,14.41
2023-03-23T18:16:55.461Z,14.36
2023-03-23T18:21:57.467Z,14.32
2023-03-23T18:27:00.463Z,14.29
2023-03-23T18:32:02.527Z,14.27
2023-03-23T18:37:04.482Z,14.24
2023-03-23T18:42:06.613Z,14.24
2023-03-23T18:47:08.361Z,14.22
2023-03-23T18:52:10.190Z,14.23
2023-03-23T18:57:12.897Z,14.21
2023-03-23T19:02:18.607Z,14.22
2023-03-23T19:07:20.605Z,14.22
2023-03-23T19:12:23.337Z,14.21
2023-03-23T19:17:26.068Z,14.22
2023-03-23T19:22:28.310Z,14.20
2023-03-23T19:27:31.358Z,14.17
2023-03-23T19:32:34.349Z,14.17
2023-03-23T19:37:36.264Z,14.16
2023-03-23T19:42:40.258Z,14.15
2023-03-23T19:47:42.315Z,14.14
2023-03-23T19:52:44.764Z,14.12
2023-03-23T19:57:46.985Z,14.13
2023-03-23T20:02:48.827Z,14.14
2023-03-23T20:07:51.966Z,14.15
2023-03-23T20:12:54.194Z,14.18
2023-03-23T20:17:58.065Z,14.22
2023-03-23T20:23:02.020Z,14.22
2023-03-23T20:28:04.205Z,14.23
2023-03-23T20:33:06.114Z,14.22
2023-03-23T20:38:08.059Z,14.26
2023-03-23T20:43:10.849Z,14.26
2023-03-23T20:48:12.845Z,14.25
2023-03-23T20:53:14.645Z,14.23
2023-03-23T20:58:16.895Z,14.23
2023-03-23T21:03:19.271Z,14.22
2023-03-23T21:08:22.325Z,14.20
2023-03-23T21:13:24.225Z,14.19
2023-03-23T21:18:26.448Z,14.17
2023-03-23T21:23:29.728Z,14.19
2023-03-23T21:28:32.376Z,14.19
2023-03-23T21:33:35.631Z,14.19
2023-03-23T21:38:38.586Z,14.18
2023-03-23T21:43:41.073Z,14.19
2023-03-23T21:48:42.796Z,14.17
2023-03-23T21:53:44.548Z,14.17
2023-03-23T21:58:46.672Z,14.16
2023-03-23T22:03:48.994Z,14.17
2023-03-23T22:08:50.835Z,14.16
2023-03-23T22:13:54.170Z,14.17
2023-03-23T22:19:00.013Z,14.16
2023-03-23T22:24:02.726Z,14.14
2023-03-23T22:29:05.907Z,14.13
2023-03-23T22:34:07.810Z,14.13
2023-03-23T22:39:10.225Z,14.11
2023-03-23T22:44:18.372Z,14.11
2023-03-23T22:49:20.593Z,14.09
2023-03-23T22:54:22.740Z,14.07
2023-03-23T22:59:24.710Z,14.06
2023-03-23T23:04:26.942Z,14.06
2023-03-23T23:09:28.883Z,14.04
2023-03-23T23:14:31.101Z,14.02
2023-03-23T23:19:33.008Z,13.99
2023-03-23T23:24:35.191Z,13.96
2023-03-23T23:29:37.135Z,13.92
2023-03-23T23:34:39.176Z,13.92
2023-03-23T23:39:42.607Z,13.90
2023-03-23T23:44:47.634Z,13.91
2023-03-23T23:49:49.533Z,13.93
2023-03-23T23:54:52.698Z,13.96
2023-03-23T23:59:54.569Z,13.95
